Terminal Aerodrome Forecast
Issued by NWS

Home | Current Version | Previous Version | Graphics & Text | Print | Product List | Glossary On
Versions: 1 2 3 4 5 6 7 8 9 10 11 12 13 14
000
FTUS43 KIWX 220500
TAFSBN
TAF
KSBN 220520Z 2206/2306 24006KT P6SM BKN090
     FM220900 VRB03KT P6SM SCT080
     FM221500 35008KT P6SM SKC=

USA.gov is the U.S. government's official web portal to all federal, state and local government web resources and services.